createdAt,value
2023-04-16T00:01:26.836Z,98568.41
2023-04-16T00:03:53.493Z,98569.00
2023-04-16T00:06:20.147Z,98578.19
2023-04-16T00:08:46.736Z,98573.97
2023-04-16T00:11:13.262Z,98575.09
2023-04-16T00:13:39.682Z,98575.84
2023-04-16T00:16:06.711Z,98568.63
2023-04-16T00:18:33.163Z,98579.53
2023-04-16T00:20:59.650Z,98577.59
2023-04-16T00:23:26.157Z,98579.59
2023-04-16T00:25:53.810Z,98582.84
2023-04-16T00:28:20.392Z,98579.69
2023-04-16T00:30:46.920Z,98581.84
2023-04-16T00:33:13.483Z,98577.88
2023-04-16T00:35:40.008Z,98579.88
2023-04-16T00:38:06.477Z,98577.78
2023-04-16T00:40:32.982Z,98572.56
2023-04-16T00:42:59.543Z,98569.75
2023-04-16T00:45:26.054Z,98567.66
2023-04-16T00:47:52.589Z,98570.41
2023-04-16T00:50:19.355Z,98572.03
2023-04-16T00:52:48.413Z,98570.28
2023-04-16T00:55:17.565Z,98580.53
2023-04-16T00:57:44.359Z,98575.88
2023-04-16T01:00:11.630Z,98580.84
2023-04-16T01:02:39.137Z,98585.94
2023-04-16T01:05:06.096Z,98577.06
2023-04-16T01:07:32.576Z,98570.28
2023-04-16T01:09:59.386Z,98574.81
2023-04-16T01:12:25.863Z,98575.22
2023-04-16T01:14:52.412Z,98580.41
2023-04-16T01:17:18.897Z,98575.31
2023-04-16T01:19:45.700Z,98582.63
2023-04-16T01:22:12.424Z,98585.75
2023-04-16T01:24:39.549Z,98595.59
2023-04-16T01:27:09.763Z,98595.59
2023-04-16T01:29:36.218Z,98597.00
2023-04-16T01:32:02.824Z,98601.25
2023-04-16T01:34:32.898Z,98589.22
2023-04-16T01:36:59.527Z,98599.28
2023-04-16T01:39:27.211Z,98606.22
2023-04-16T01:41:53.704Z,98610.41
2023-04-16T01:44:20.188Z,98602.06
2023-04-16T01:46:46.673Z,98606.50
2023-04-16T01:49:13.691Z,98611.28
2023-04-16T01:51:40.230Z,98613.69
2023-04-16T01:54:06.686Z,98613.00
2023-04-16T01:56:33.280Z,98605.63
2023-04-16T01:58:59.714Z,98605.16
2023-04-16T02:01:31.635Z,98613.06
2023-04-16T02:03:58.548Z,98606.31
2023-04-16T02:06:27.347Z,98602.16
2023-04-16T02:08:53.851Z,98608.72
2023-04-16T02:11:21.169Z,98607.94
2023-04-16T02:13:48.421Z,98616.50
2023-04-16T02:16:16.941Z,98615.31
2023-04-16T02:18:50.676Z,98620.31
2023-04-16T02:21:20.234Z,98625.06
2023-04-16T02:23:51.378Z,98616.34
2023-04-16T02:26:21.272Z,98622.03
2023-04-16T02:28:49.084Z,98628.28
2023-04-16T02:31:19.414Z,98626.78
2023-04-16T02:33:46.963Z,98621.50
2023-04-16T02:36:13.509Z,98620.56
2023-04-16T02:38:40.034Z,98621.63
2023-04-16T02:41:06.710Z,98614.78
2023-04-16T02:43:33.958Z,98621.84
2023-04-16T02:46:01.594Z,98611.19
2023-04-16T02:48:28.129Z,98610.81
2023-04-16T02:50:54.626Z,98607.31
2023-04-16T02:53:21.385Z,98606.28
2023-04-16T02:55:55.259Z,98611.06
2023-04-16T02:58:24.642Z,98602.53
2023-04-16T03:00:52.759Z,98608.44
2023-04-16T03:03:19.562Z,98610.81
2023-04-16T03:05:46.060Z,98604.56
2023-04-16T03:08:12.812Z,98612.91
2023-04-16T03:10:39.501Z,98606.31
2023-04-16T03:13:05.997Z,98602.84
2023-04-16T03:15:32.771Z,98601.41
2023-04-16T03:17:59.928Z,98606.31
2023-04-16T03:20:26.417Z,98611.75
2023-04-16T03:22:53.291Z,98610.38
2023-04-16T03:25:20.064Z,98608.06
2023-04-16T03:27:46.665Z,98608.53
2023-04-16T03:30:14.875Z,98607.09
2023-04-16T03:32:41.623Z,98615.69
2023-04-16T03:35:09.395Z,98623.03
2023-04-16T03:37:37.162Z,98626.41
2023-04-16T03:40:05.779Z,98632.44
2023-04-16T03:42:32.419Z,98633.88
2023-04-16T03:44:59.389Z,98635.41
2023-04-16T03:47:26.221Z,98647.50
2023-04-16T03:49:56.274Z,98647.78
2023-04-16T03:52:22.769Z,98649.56
2023-04-16T03:54:49.281Z,98641.16
2023-04-16T03:57:24.634Z,98641.16
2023-04-16T03:59:54.000Z,98651.22
2023-04-16T04:02:21.401Z,98650.13
2023-04-16T04:04:48.888Z,98652.06
2023-04-16T04:07:16.448Z,98657.22
2023-04-16T04:09:43.154Z,98660.47
2023-04-16T04:12:10.040Z,98659.59
2023-04-16T04:14:39.919Z,98660.44
2023-04-16T04:17:08.481Z,98659.22
2023-04-16T04:19:34.997Z,98661.97
2023-04-16T04:22:01.782Z,98667.47
2023-04-16T04:24:28.259Z,98672.69
2023-04-16T04:26:54.817Z,98666.84
2023-04-16T04:29:22.600Z,98675.34
2023-04-16T04:31:49.182Z,98673.88
2023-04-16T04:34:16.003Z,98677.34
2023-04-16T04:36:42.487Z,98678.25
2023-04-16T04:39:09.885Z,98676.06
2023-04-16T04:41:36.828Z,98675.69
2023-04-16T04:44:03.719Z,98681.06
2023-04-16T04:46:30.351Z,98688.97
2023-04-16T04:48:56.877Z,98685.97
2023-04-16T04:51:23.391Z,98691.19
2023-04-16T04:53:49.864Z,98697.09
2023-04-16T04:56:16.329Z,98691.34
2023-04-16T04:58:42.836Z,98688.84
2023-04-16T05:01:09.327Z,98691.09
2023-04-16T05:03:36.078Z,98702.84
2023-04-16T05:06:02.644Z,98699.75
2023-04-16T05:08:29.099Z,98704.81
2023-04-16T05:10:55.548Z,98705.63
2023-04-16T05:13:22.059Z,98707.25
2023-04-16T05:15:48.600Z,98708.59
2023-04-16T05:18:15.058Z,98709.81
2023-04-16T05:20:41.561Z,98714.53
2023-04-16T05:23:08.050Z,98717.00
2023-04-16T05:25:34.698Z,98712.91
2023-04-16T05:28:01.201Z,98716.41
2023-04-16T05:30:27.645Z,98719.31
2023-04-16T05:32:54.166Z,98719.13
2023-04-16T05:35:20.676Z,98723.47
2023-04-16T05:37:47.120Z,98720.13
2023-04-16T05:40:14.430Z,98718.13
2023-04-16T05:42:40.910Z,98718.31
2023-04-16T05:45:08.013Z,98723.25
2023-04-16T05:47:34.489Z,98723.75
2023-04-16T05:50:00.954Z,98734.31
2023-04-16T05:52:27.434Z,98733.09
2023-04-16T05:54:53.858Z,98736.56
2023-04-16T05:57:20.386Z,98739.88
2023-04-16T05:59:46.916Z,98745.34
2023-04-16T06:02:13.544Z,98749.47
2023-04-16T06:04:40.132Z,98750.13
2023-04-16T06:07:06.994Z,98744.16
2023-04-16T06:09:33.470Z,98741.91
2023-04-16T06:12:00.033Z,98747.41
2023-04-16T06:14:26.491Z,98745.69
2023-04-16T06:16:53.026Z,98750.81
2023-04-16T06:19:19.492Z,98753.47
2023-04-16T06:21:46.118Z,98748.50
2023-04-16T06:24:13.308Z,98752.69
2023-04-16T06:26:39.849Z,98752.03
2023-04-16T06:29:06.420Z,98753.38
2023-04-16T06:31:33.004Z,98760.13
2023-04-16T06:33:59.554Z,98760.94
2023-04-16T06:36:27.544Z,98763.72
2023-04-16T06:38:54.004Z,98764.31
2023-04-16T06:41:22.634Z,98768.19
2023-04-16T06:43:49.307Z,98774.44
2023-04-16T06:46:15.799Z,98766.88
2023-04-16T06:48:42.542Z,98772.78
2023-04-16T06:51:09.128Z,98769.63
2023-04-16T06:53:37.488Z,98769.50
2023-04-16T06:56:04.330Z,98776.75
2023-04-16T06:58:30.881Z,98772.59
2023-04-16T07:00:57.418Z,98773.72
2023-04-16T07:03:24.040Z,98775.00
2023-04-16T07:05:50.612Z,98784.56
2023-04-16T07:08:17.053Z,98786.84
2023-04-16T07:10:43.588Z,98782.47
2023-04-16T07:13:10.132Z,98788.66
2023-04-16T07:15:36.740Z,98785.56
2023-04-16T07:18:03.321Z,98785.53
2023-04-16T07:20:29.970Z,98782.84
2023-04-16T07:22:56.723Z,98783.34
2023-04-16T07:25:23.185Z,98784.66
2023-04-16T07:27:49.643Z,98789.44
2023-04-16T07:30:16.131Z,98787.28
2023-04-16T07:32:42.687Z,98785.19
2023-04-16T07:35:09.451Z,98784.84
2023-04-16T07:37:35.913Z,98781.13
2023-04-16T07:40:02.611Z,98783.13
2023-04-16T07:42:29.095Z,98799.59
2023-04-16T07:44:55.600Z,98810.88
2023-04-16T07:47:23.133Z,98800.41
2023-04-16T07:49:50.653Z,98798.00
2023-04-16T07:52:17.122Z,98804.41
2023-04-16T07:54:43.595Z,98804.22
2023-04-16T07:57:11.501Z,98811.13
2023-04-16T07:59:37.987Z,98813.97
2023-04-16T08:02:04.922Z,98814.28
2023-04-16T08:04:31.716Z,98803.84
2023-04-16T08:06:58.195Z,98813.84
2023-04-16T08:09:28.559Z,98813.09
2023-04-16T08:11:55.313Z,98814.84
2023-04-16T08:14:21.800Z,98816.72
2023-04-16T08:16:48.263Z,98821.78
2023-04-16T08:19:14.713Z,98817.81
2023-04-16T08:21:41.316Z,98820.44
2023-04-16T08:24:08.119Z,98827.13
2023-04-16T08:26:34.727Z,98827.91
2023-04-16T08:29:01.230Z,98828.66
2023-04-16T08:31:27.796Z,98828.53
2023-04-16T08:33:54.249Z,98835.91
2023-04-16T08:36:21.047Z,98842.72
2023-04-16T08:38:47.569Z,98836.47
2023-04-16T08:41:14.963Z,98834.63
2023-04-16T08:43:45.441Z,98834.69
2023-04-16T08:46:12.556Z,98837.63
2023-04-16T08:48:42.732Z,98840.38
2023-04-16T08:51:11.018Z,98830.56
2023-04-16T08:53:49.851Z,98844.28
2023-04-16T08:56:21.121Z,98844.34
2023-04-16T08:58:48.776Z,98839.63
2023-04-16T09:01:17.999Z,98850.91
2023-04-16T09:03:47.455Z,98849.84
2023-04-16T09:06:15.770Z,98849.69
2023-04-16T09:08:44.488Z,98851.31
2023-04-16T09:11:12.042Z,98851.91
2023-04-16T09:13:38.524Z,98857.31
2023-04-16T09:16:07.663Z,98849.44
2023-04-16T09:18:34.229Z,98849.63
2023-04-16T09:21:00.992Z,98858.84
2023-04-16T09:23:27.479Z,98859.28
2023-04-16T09:25:54.081Z,98856.28
2023-04-16T09:28:43.141Z,98866.34
2023-04-16T09:31:14.296Z,98861.72
2023-04-16T09:33:41.404Z,98872.06
2023-04-16T09:36:08.002Z,98867.84
2023-04-16T09:38:51.830Z,98872.69
2023-04-16T09:41:18.998Z,98874.19
2023-04-16T09:44:00.476Z,98869.47
2023-04-16T09:46:30.081Z,98888.59
2023-04-16T09:48:56.756Z,98882.63
2023-04-16T09:51:24.775Z,98878.88
2023-04-16T09:53:56.977Z,98887.28
2023-04-16T09:56:27.870Z,98888.28
2023-04-16T09:59:00.306Z,98892.50
2023-04-16T10:01:26.782Z,98890.50
2023-04-16T10:03:55.691Z,98886.69
2023-04-16T10:06:23.390Z,98889.31
2023-04-16T10:08:51.330Z,98894.53
2023-04-16T10:11:19.133Z,98895.81
2023-04-16T10:13:45.936Z,98890.31
2023-04-16T10:16:12.571Z,98889.63
2023-04-16T10:18:41.431Z,98903.09
2023-04-16T10:21:11.564Z,98896.00
2023-04-16T10:23:42.302Z,98897.69
2023-04-16T10:26:09.320Z,98899.78
2023-04-16T10:28:36.213Z,98904.84
2023-04-16T10:31:05.613Z,98904.00
2023-04-16T10:33:34.341Z,98906.38
2023-04-16T10:36:12.275Z,98907.06
2023-04-16T10:38:41.091Z,98910.72
2023-04-16T10:41:09.413Z,98912.69
2023-04-16T10:43:48.521Z,98906.91
2023-04-16T10:46:18.098Z,98908.50
2023-04-16T10:51:29.354Z,98903.25
2023-04-16T10:54:16.775Z,98906.88
2023-04-16T10:56:44.955Z,98912.50
2023-04-16T10:59:11.961Z,98899.50
2023-04-16T11:01:43.555Z,98908.75
2023-04-16T11:04:19.305Z,98903.97
2023-04-16T11:07:19.266Z,98898.59
2023-04-16T11:09:59.977Z,98895.47
2023-04-16T11:12:29.896Z,98902.28
2023-04-16T11:15:00.494Z,98901.22
2023-04-16T11:17:43.635Z,98905.72
2023-04-16T11:20:19.474Z,98902.63
2023-04-16T11:22:47.477Z,98908.41
2023-04-16T11:25:19.975Z,98902.16
2023-04-16T11:27:46.392Z,98907.44
2023-04-16T11:30:13.585Z,98905.06
2023-04-16T11:32:40.576Z,98903.72
2023-04-16T11:35:18.259Z,98908.13
2023-04-16T11:37:45.920Z,98906.13
2023-04-16T11:40:12.948Z,98904.53
2023-04-16T11:42:41.089Z,98906.00
2023-04-16T11:45:09.722Z,98905.66
2023-04-16T11:47:47.178Z,98912.56
2023-04-16T11:50:31.632Z,98909.75
2023-04-16T11:53:04.752Z,98907.16
2023-04-16T11:55:31.268Z,98907.53
2023-04-16T11:57:57.752Z,98910.03
2023-04-16T12:00:24.897Z,98920.88
2023-04-16T12:02:55.370Z,98912.63
2023-04-16T12:05:38.569Z,98921.53
2023-04-16T12:08:07.307Z,98914.50
2023-04-16T12:10:35.988Z,98916.66
2023-04-16T12:13:16.319Z,98918.41
2023-04-16T12:15:54.036Z,98921.47
2023-04-16T12:18:23.842Z,98922.41
2023-04-16T12:20:53.460Z,98918.34
2023-04-16T12:23:28.744Z,98918.69
2023-04-16T12:25:55.967Z,98919.38
2023-04-16T12:28:38.252Z,98920.09
2023-04-16T12:31:05.838Z,98915.06
2023-04-16T12:33:32.485Z,98919.78
2023-04-16T12:35:59.092Z,98920.13
2023-04-16T12:38:26.696Z,98925.06
2023-04-16T12:40:56.697Z,98934.91
2023-04-16T12:43:24.031Z,98930.22
2023-04-16T12:45:50.659Z,98926.38
2023-04-16T12:48:17.237Z,98929.69
2023-04-16T12:50:44.402Z,98935.06
2023-04-16T12:53:11.734Z,98928.69
2023-04-16T12:55:38.323Z,98925.06
2023-04-16T12:58:04.858Z,98928.78
2023-04-16T13:00:31.413Z,98930.41
2023-04-16T13:02:58.154Z,98924.31
2023-04-16T13:05:24.731Z,98926.84
2023-04-16T13:07:51.319Z,98930.31
2023-04-16T13:10:18.049Z,98926.94
2023-04-16T13:12:46.521Z,98933.03
2023-04-16T13:15:13.091Z,98930.38
2023-04-16T13:17:39.691Z,98927.59
2023-04-16T13:20:06.691Z,98931.13
2023-04-16T13:22:33.726Z,98923.97
2023-04-16T13:25:00.411Z,98935.16
2023-04-16T13:27:26.996Z,98928.59
2023-04-16T13:29:53.584Z,98929.25
2023-04-16T13:32:20.416Z,98923.00
2023-04-16T13:34:47.219Z,98929.13
2023-04-16T13:37:13.912Z,98930.22
2023-04-16T13:39:40.613Z,98935.78
2023-04-16T13:42:07.181Z,98928.69
2023-04-16T13:44:33.833Z,98926.50
2023-04-16T13:47:00.594Z,98936.41
2023-04-16T13:49:27.288Z,98936.03
2023-04-16T13:51:53.839Z,98933.25
2023-04-16T13:54:20.546Z,98932.03
2023-04-16T13:56:47.060Z,98921.47
2023-04-16T13:59:15.682Z,98924.81
2023-04-16T14:01:42.470Z,98932.38
2023-04-16T14:04:09.127Z,98933.44
2023-04-16T14:06:35.928Z,98925.94
2023-04-16T14:09:02.521Z,98930.00
2023-04-16T14:11:29.046Z,98931.81
2023-04-16T14:13:55.827Z,98922.53
2023-04-16T14:16:22.441Z,98924.84
2023-04-16T14:18:49.038Z,98931.66
2023-04-16T14:21:15.654Z,98936.84
2023-04-16T14:23:42.127Z,98925.53
2023-04-16T14:26:08.555Z,98921.06
2023-04-16T14:28:35.738Z,98926.63
2023-04-16T14:31:02.224Z,98922.56
2023-04-16T14:33:28.732Z,98926.56
2023-04-16T14:35:55.435Z,98923.91
2023-04-16T14:38:21.901Z,98930.69
2023-04-16T14:40:48.815Z,98917.03
2023-04-16T14:43:15.345Z,98913.97
2023-04-16T14:45:41.850Z,98915.59
2023-04-16T14:48:08.564Z,98917.94
2023-04-16T14:50:38.879Z,98914.03
2023-04-16T14:53:05.663Z,98923.34
2023-04-16T14:55:32.580Z,98915.78
2023-04-16T14:57:59.642Z,98917.94
2023-04-16T15:00:27.304Z,98919.63
2023-04-16T15:02:55.100Z,98924.13
2023-04-16T15:05:22.170Z,98923.19
2023-04-16T15:07:48.882Z,98927.16
2023-04-16T15:10:15.531Z,98923.25
2023-04-16T15:12:42.091Z,98930.78
2023-04-16T15:15:09.487Z,98923.84
2023-04-16T15:17:36.095Z,98929.94
2023-04-16T15:20:06.455Z,98923.16
2023-04-16T15:22:32.882Z,98924.09
2023-04-16T15:24:59.395Z,98918.50
2023-04-16T15:27:26.104Z,98922.06
2023-04-16T15:29:53.966Z,98927.94
2023-04-16T15:32:20.601Z,98923.13
2023-04-16T15:34:47.067Z,98924.47
2023-04-16T15:37:13.530Z,98920.78
2023-04-16T15:39:40.774Z,98923.28
2023-04-16T15:42:07.946Z,98929.25
2023-04-16T15:44:34.766Z,98928.81
2023-04-16T15:47:01.273Z,98922.72
2023-04-16T15:49:27.877Z,98930.97
2023-04-16T15:51:55.444Z,98926.97
2023-04-16T15:54:21.920Z,98926.75
2023-04-16T15:56:48.428Z,98926.75
2023-04-16T15:59:15.060Z,98928.75
2023-04-16T16:01:41.564Z,98918.66
2023-04-16T16:04:08.355Z,98920.91
2023-04-16T16:06:35.651Z,98919.47
2023-04-16T16:09:02.153Z,98910.09
2023-04-16T16:11:28.656Z,98919.59
2023-04-16T16:13:55.137Z,98921.47
2023-04-16T16:16:21.935Z,98920.44
2023-04-16T16:18:48.734Z,98921.53
2023-04-16T16:21:15.297Z,98921.69
2023-04-16T16:23:41.995Z,98919.91
2023-04-16T16:26:09.193Z,98928.81
2023-04-16T16:28:37.798Z,98919.03
2023-04-16T16:31:05.970Z,98929.91
2023-04-16T16:33:33.080Z,98935.59
2023-04-16T16:35:59.529Z,98930.34
2023-04-16T16:38:26.159Z,98926.34
2023-04-16T16:40:52.733Z,98926.34
2023-04-16T16:43:19.486Z,98927.59
2023-04-16T16:45:46.416Z,98926.22
2023-04-16T16:48:12.907Z,98927.25
2023-04-16T16:50:39.436Z,98934.84
2023-04-16T16:53:06.224Z,98938.22
2023-04-16T16:55:32.653Z,98932.31
2023-04-16T16:57:59.134Z,98938.31
2023-04-16T17:00:25.751Z,98938.88
2023-04-16T17:02:52.525Z,98926.06
2023-04-16T17:05:19.793Z,98940.00
2023-04-16T17:07:46.673Z,98943.28
2023-04-16T17:10:19.934Z,98945.66
2023-04-16T17:12:48.320Z,98941.75
2023-04-16T17:15:15.442Z,98949.84
2023-04-16T17:17:42.274Z,98946.75
2023-04-16T17:20:10.677Z,98950.16
2023-04-16T17:22:38.749Z,98944.22
2023-04-16T17:25:07.539Z,98949.41
2023-04-16T17:27:34.382Z,98954.25
2023-04-16T17:30:01.799Z,98955.72
2023-04-16T17:32:29.315Z,98953.25
2023-04-16T17:34:56.347Z,98955.34
2023-04-16T17:37:23.240Z,98955.63
2023-04-16T17:39:50.150Z,98959.81
2023-04-16T17:42:16.848Z,98967.53
2023-04-16T17:44:43.430Z,98967.59
2023-04-16T17:47:09.876Z,98974.31
2023-04-16T17:49:36.404Z,98983.13
2023-04-16T17:52:02.859Z,98978.84
2023-04-16T17:54:29.333Z,98980.56
2023-04-16T17:56:55.855Z,98982.28
2023-04-16T17:59:22.313Z,98992.53
2023-04-16T18:01:49.598Z,98986.16
2023-04-16T18:04:16.673Z,98992.97
2023-04-16T18:06:43.577Z,98992.66
2023-04-16T18:09:10.264Z,99012.00
2023-04-16T18:11:37.075Z,99002.16
2023-04-16T18:14:03.509Z,98996.41
2023-04-16T18:16:29.949Z,98994.47
2023-04-16T18:18:56.580Z,98991.66
2023-04-16T18:21:23.070Z,99000.38
2023-04-16T18:23:49.518Z,98994.81
2023-04-16T18:26:20.430Z,99000.66
2023-04-16T18:28:47.553Z,99001.19
2023-04-16T18:31:14.105Z,99000.16
2023-04-16T18:33:55.485Z,99010.25
2023-04-16T18:36:22.564Z,99008.94
2023-04-16T18:39:00.002Z,99009.41
2023-04-16T18:41:27.929Z,99019.13
2023-04-16T18:43:54.486Z,99023.66
2023-04-16T18:46:20.972Z,99014.13
2023-04-16T18:48:47.459Z,99019.31
2023-04-16T18:51:16.060Z,99022.16
2023-04-16T18:53:44.441Z,99023.50
2023-04-16T18:56:11.614Z,99022.69
2023-04-16T18:58:38.210Z,99021.09
2023-04-16T19:01:06.098Z,99020.59
2023-04-16T19:03:33.270Z,99022.91
2023-04-16T19:06:00.074Z,99029.50
2023-04-16T19:08:27.077Z,99025.41
2023-04-16T19:10:53.540Z,99021.16
2023-04-16T19:13:20.155Z,99016.19
2023-04-16T19:15:46.730Z,99026.03
2023-04-16T19:18:13.239Z,99019.97
2023-04-16T19:20:39.697Z,99021.97
2023-04-16T19:23:08.309Z,99019.63
2023-04-16T19:25:36.349Z,99021.78
2023-04-16T19:28:03.733Z,99022.09
2023-04-16T19:30:30.956Z,99014.22
2023-04-16T19:32:57.499Z,99013.75
2023-04-16T19:35:24.241Z,99021.78
2023-04-16T19:37:51.071Z,99016.22
2023-04-16T19:40:17.730Z,99016.22
2023-04-16T19:42:45.360Z,99019.34
2023-04-16T19:45:12.030Z,99023.13
2023-04-16T19:47:38.668Z,99022.84
2023-04-16T19:50:05.810Z,99029.59
2023-04-16T19:52:37.319Z,99038.31
2023-04-16T19:55:04.916Z,99037.16
2023-04-16T19:57:31.400Z,99045.00
2023-04-16T19:59:57.886Z,99040.91
2023-04-16T20:02:24.651Z,99042.72
2023-04-16T20:04:52.917Z,99042.06
2023-04-16T20:07:19.981Z,99041.22
2023-04-16T20:09:46.465Z,99055.97
2023-04-16T20:12:12.985Z,99046.28
2023-04-16T20:14:39.433Z,99045.53
2023-04-16T20:17:09.736Z,99053.91
2023-04-16T20:19:38.358Z,99055.53
2023-04-16T20:22:06.513Z,99054.00
2023-04-16T20:24:33.008Z,99054.66
2023-04-16T20:26:59.724Z,99053.97
2023-04-16T20:29:26.192Z,99049.16
2023-04-16T20:31:52.771Z,99054.88
2023-04-16T20:34:19.226Z,99057.13
2023-04-16T20:36:45.796Z,99047.19
2023-04-16T20:39:12.627Z,99054.91
2023-04-16T20:41:44.043Z,99048.81
2023-04-16T20:44:17.921Z,99048.19
2023-04-16T20:46:50.772Z,99054.09
2023-04-16T20:49:18.405Z,99056.06
2023-04-16T20:51:44.936Z,99048.69
2023-04-16T20:54:11.495Z,99046.09
2023-04-16T20:56:37.940Z,99042.00
2023-04-16T20:59:04.439Z,99036.28
2023-04-16T21:01:31.025Z,99045.47
2023-04-16T21:03:57.755Z,99045.97
2023-04-16T21:06:24.456Z,99040.22
2023-04-16T21:08:51.092Z,99036.59
2023-04-16T21:11:17.573Z,99035.47
2023-04-16T21:13:44.082Z,99044.47
2023-04-16T21:16:12.389Z,99041.84
2023-04-16T21:18:38.975Z,99036.25
2023-04-16T21:21:05.557Z,99041.81
2023-04-16T21:23:32.014Z,99042.16
2023-04-16T21:25:58.493Z,99037.72
2023-04-16T21:28:24.994Z,99044.66
2023-04-16T21:30:52.387Z,99042.81
2023-04-16T21:33:18.927Z,99039.06
2023-04-16T21:35:50.865Z,99040.72
2023-04-16T21:38:17.317Z,99042.00
2023-04-16T21:40:45.724Z,99043.50
2023-04-16T21:43:12.212Z,99038.56
2023-04-16T21:45:39.692Z,99044.47
2023-04-16T21:48:06.600Z,99039.06
2023-04-16T21:50:33.294Z,99037.47
2023-04-16T21:52:59.798Z,99043.53
2023-04-16T21:55:26.260Z,99035.66
2023-04-16T21:57:52.722Z,99032.38
2023-04-16T22:00:19.463Z,99037.81
2023-04-16T22:02:46.082Z,99041.25
2023-04-16T22:05:12.719Z,99027.81
2023-04-16T22:07:39.317Z,99035.50
2023-04-16T22:10:06.781Z,99044.53
2023-04-16T22:12:33.275Z,99035.69
2023-04-16T22:15:02.731Z,99026.13
2023-04-16T22:17:30.088Z,99033.56
2023-04-16T22:20:00.470Z,99028.13
2023-04-16T22:22:26.913Z,99027.31
2023-04-16T22:24:53.489Z,99029.91
2023-04-16T22:27:19.940Z,99029.56
2023-04-16T22:29:46.392Z,99026.56
2023-04-16T22:32:12.950Z,99031.84
2023-04-16T22:34:39.399Z,99027.38
2023-04-16T22:37:05.935Z,99025.94
2023-04-16T22:39:32.398Z,99029.41
2023-04-16T22:41:58.904Z,99029.22
2023-04-16T22:44:25.543Z,99030.03
2023-04-16T22:46:52.071Z,99025.78
2023-04-16T22:49:18.562Z,99031.03
2023-04-16T22:51:45.045Z,99035.81
2023-04-16T22:54:13.669Z,99030.41
2023-04-16T22:56:40.921Z,99030.41
2023-04-16T22:59:07.762Z,99028.56
2023-04-16T23:01:35.120Z,99031.53
2023-04-16T23:04:01.872Z,99023.81
2023-04-16T23:06:28.344Z,99025.44
2023-04-16T23:08:54.822Z,99026.59
2023-04-16T23:11:21.274Z,99020.84
2023-04-16T23:13:47.834Z,99022.81
2023-04-16T23:16:14.318Z,99019.03
2023-04-16T23:18:40.797Z,99020.53
2023-04-16T23:21:07.318Z,99017.84
2023-04-16T23:23:33.776Z,99017.84
2023-04-16T23:26:02.446Z,99025.13
2023-04-16T23:28:28.941Z,99022.97
2023-04-16T23:30:55.573Z,99027.56
2023-04-16T23:33:22.146Z,99029.53
2023-04-16T23:35:48.651Z,99024.56
2023-04-16T23:38:15.126Z,99030.97
2023-04-16T23:40:41.617Z,99027.34
2023-04-16T23:43:08.052Z,99023.78
2023-04-16T23:45:34.615Z,99028.34
2023-04-16T23:48:01.118Z,99024.38
2023-04-16T23:50:27.645Z,99027.06
2023-04-16T23:52:54.158Z,99031.66
2023-04-16T23:55:20.962Z,99030.34
2023-04-16T23:57:47.467Z,99027.53
